Time;durP1;ratioP1;P1;durP2;ratioP2;P2;SDS_P1;SDS_P2;PMS_P1;PMS_P2;Temp;Humidity;BMP_temperature;BMP_pressure;BME280_temperature;BME280_humidity;BME280_pressure;Samples;Min_cycle;Max_cycle;Signal;HPM_P1;HPM_P2
2023/08/26 00:00:11;;;;;;;4.43;4.03;;;19.60;99.90;;;;;;5084663;28;20661;-81
2023/08/26 00:02:38;;;;;;;9.13;5.00;;;19.60;99.90;;;;;;5084685;28;21001;-80
2023/08/26 00:05:06;;;;;;;6.20;4.77;;;19.60;99.90;;;;;;5086415;28;20628;-77
2023/08/26 00:07:33;;;;;;;4.80;4.30;;;19.60;99.90;;;;;;5086485;28;20636;-77
2023/08/26 00:10:02;;;;;;;4.57;4.17;;;19.60;99.90;;;;;;5087987;28;20989;-77
2023/08/26 00:12:29;;;;;;;4.57;4.17;;;19.50;99.90;;;;;;5088637;28;20651;-77
2023/08/26 00:14:56;;;;;;;7.03;4.70;;;19.50;99.90;;;;;;5089310;28;20625;-77
2023/08/26 00:17:23;;;;;;;6.50;4.70;;;19.50;99.90;;;;;;5088767;28;20630;-76
2023/08/26 00:19:50;;;;;;;5.87;4.90;;;19.50;99.90;;;;;;5088845;28;20646;-77
2023/08/26 00:22:17;;;;;;;5.40;4.70;;;19.40;99.90;;;;;;5088290;28;20749;-77
2023/08/26 00:24:44;;;;;;;5.83;4.83;;;19.40;99.90;;;;;;5087818;28;20681;-77
2023/08/26 00:27:12;;;;;;;5.10;4.57;;;19.50;99.90;;;;;;5088909;28;20633;-78
2023/08/26 00:29:39;;;;;;;5.57;4.93;;;19.50;99.90;;;;;;5087640;28;20994;-78
2023/08/26 00:32:06;;;;;;;5.97;4.73;;;19.40;99.90;;;;;;5088415;28;21270;-78
2023/08/26 00:34:33;;;;;;;4.63;4.03;;;19.40;99.90;;;;;;5089003;28;20632;-78
2023/08/26 00:37:00;;;;;;;5.23;4.80;;;19.40;99.90;;;;;;5088538;28;20642;-78
2023/08/26 00:39:27;;;;;;;5.10;4.60;;;19.30;99.90;;;;;;5087410;28;21659;-77
2023/08/26 00:41:53;;;;;;;4.50;4.07;;;19.30;99.90;;;;;;5088636;28;21188;-78
2023/08/26 00:44:22;;;;;;;5.37;4.83;;;19.30;99.90;;;;;;5088674;28;21206;-78
2023/08/26 00:46:49;;;;;;;5.70;5.20;;;19.40;99.90;;;;;;5088449;28;21185;-78
2023/08/26 00:49:18;;;;;;;5.33;4.20;;;19.40;99.90;;;;;;5086309;28;20633;-79
2023/08/26 00:51:45;;;;;;;7.47;5.87;;;19.50;99.90;;;;;;5087997;28;20682;-80
2023/08/26 00:54:12;;;;;;;5.67;4.47;;;19.50;99.90;;;;;;5088934;28;20670;-79
2023/08/26 00:56:39;;;;;;;4.30;3.70;;;19.30;99.90;;;;;;5088295;28;20628;-80
2023/08/26 00:59:07;;;;;;;3.40;3.10;;;19.30;99.90;;;;;;5086843;28;20633;-80
2023/08/26 01:01:36;;;;;;;2.17;1.97;;;19.30;99.90;;;;;;5087858;28;20632;-81
2023/08/26 01:04:03;;;;;;;3.37;2.67;;;19.20;99.90;;;;;;5087768;28;20620;-78
2023/08/26 01:06:30;;;;;;;3.17;2.97;;;19.20;99.90;;;;;;5088065;28;20632;-76
2023/08/26 01:08:57;;;;;;;4.50;2.57;;;19.30;99.90;;;;;;5086981;28;20616;-77
2023/08/26 01:11:34;;;;;;;3.97;2.97;;;19.10;99.90;;;;;;5089139;28;20656;-78
2023/08/26 01:14:10;;;;;;;2.20;2.10;;;19.20;99.90;;;;;;5088782;28;20634;-76
2023/08/26 01:16:42;;;;;;;2.20;2.03;;;19.20;99.90;;;;;;5088360;28;20637;-76
2023/08/26 01:19:22;;;;;;;2.43;2.23;;;19.20;99.90;;;;;;5086820;28;20632;-76
2023/08/26 01:21:51;;;;;;;2.77;2.30;;;19.10;99.90;;;;;;5087326;28;20751;-76
2023/08/26 01:24:21;;;;;;;5.87;3.17;;;19.10;99.90;;;;;;5088825;28;20714;-76
2023/08/26 01:26:50;;;;;;;3.07;2.87;;;19.00;99.90;;;;;;5088153;28;21249;-75
2023/08/26 01:29:18;;;;;;;4.87;3.20;;;19.00;99.90;;;;;;5086359;28;20621;-75
2023/08/26 01:31:48;;;;;;;2.50;2.20;;;19.00;99.90;;;;;;5085193;28;20682;-75
2023/08/26 01:34:21;;;;;;;2.83;2.17;;;19.00;99.90;;;;;;5088235;28;21017;-76
2023/08/26 01:36:51;;;;;;;2.17;1.97;;;19.00;99.90;;;;;;5087997;28;20620;-76
2023/08/26 01:39:21;;;;;;;4.50;3.30;;;18.90;99.90;;;;;;5087297;28;21192;-77
2023/08/26 01:41:51;;;;;;;4.87;2.97;;;19.00;99.90;;;;;;5087655;28;20624;-77
2023/08/26 01:44:19;;;;;;;3.00;2.53;;;19.00;99.90;;;;;;5085739;28;21860;-77
2023/08/26 01:46:47;;;;;;;2.73;2.10;;;19.00;99.90;;;;;;5087390;28;20629;-77
2023/08/26 01:49:15;;;;;;;4.13;3.10;;;19.00;99.90;;;;;;5085506;28;20636;-77
2023/08/26 01:51:42;;;;;;;4.13;2.73;;;19.00;99.90;;;;;;5087806;28;20647;-78
2023/08/26 01:54:09;;;;;;;3.03;2.30;;;19.10;99.90;;;;;;5087384;28;20628;-78
2023/08/26 01:56:37;;;;;;;3.07;2.63;;;19.00;99.90;;;;;;5086613;28;20635;-78
2023/08/26 01:59:04;;;;;;;2.33;2.17;;;19.10;99.90;;;;;;5086400;28;20633;-78
2023/08/26 02:01:33;;;;;;;3.10;2.90;;;19.10;99.90;;;;;;5086889;28;20620;-79
2023/08/26 02:04:00;;;;;;;2.83;2.40;;;19.10;99.90;;;;;;5087758;28;20640;-78
2023/08/26 02:06:27;;;;;;;3.17;2.87;;;19.10;99.90;;;;;;5087521;28;20722;-78
2023/08/26 02:08:54;;;;;;;4.07;3.07;;;19.10;99.90;;;;;;5086712;28;20639;-78
2023/08/26 02:11:21;;;;;;;2.60;2.40;;;19.10;99.90;;;;;;5087211;28;20629;-78
2023/08/26 02:13:49;;;;;;;2.57;2.30;;;19.10;99.90;;;;;;5087260;28;20624;-78
2023/08/26 02:16:16;;;;;;;8.10;3.20;;;19.00;99.90;;;;;;5087275;28;20634;-78
2023/08/26 02:18:46;;;;;;;4.53;3.53;;;18.90;99.90;;;;;;5086086;28;20628;-79
2023/08/26 02:21:13;;;;;;;4.50;2.63;;;18.90;99.90;;;;;;5087147;28;20686;-79
2023/08/26 02:23:39;;;;;;;2.90;2.60;;;18.90;99.90;;;;;;5087247;28;20639;-78
2023/08/26 02:26:06;;;;;;;2.87;2.33;;;18.90;99.90;;;;;;5087466;28;20613;-79
2023/08/26 02:28:34;;;;;;;3.43;2.53;;;18.90;99.90;;;;;;5086280;28;20924;-80
2023/08/26 02:31:03;;;;;;;3.07;2.50;;;18.90;99.90;;;;;;5086451;28;20628;-80
2023/08/26 02:33:30;;;;;;;2.93;2.63;;;18.80;99.90;;;;;;5086636;28;21029;-79
2023/08/26 02:35:57;;;;;;;2.50;2.03;;;18.90;99.90;;;;;;5086389;28;20632;-79
2023/08/26 02:38:24;;;;;;;2.63;2.37;;;19.00;99.90;;;;;;5087121;28;20753;-79
2023/08/26 02:40:55;;;;;;;2.33;2.00;;;19.00;99.90;;;;;;5085874;28;20710;-80
2023/08/26 02:43:22;;;;;;;2.80;2.40;;;19.00;99.90;;;;;;5086029;28;20635;-79
2023/08/26 02:45:53;;;;;;;2.40;2.17;;;19.10;99.90;;;;;;5086901;28;20645;-80
2023/08/26 02:48:22;;;;;;;2.60;2.37;;;19.10;99.90;;;;;;5085815;28;20714;-80
2023/08/26 02:50:56;;;;;;;2.13;1.93;;;19.00;99.90;;;;;;5086476;28;21007;-80
2023/08/26 02:53:24;;;;;;;2.90;2.53;;;19.00;99.90;;;;;;5085935;28;21299;-80
2023/08/26 02:55:52;;;;;;;2.83;2.63;;;19.00;99.90;;;;;;5086578;28;20739;-80
2023/08/26 02:58:21;;;;;;;3.10;2.10;;;19.00;99.90;;;;;;5086576;28;20674;-80
2023/08/26 03:00:48;;;;;;;3.97;2.87;;;19.00;99.90;;;;;;5086198;28;20650;-80
2023/08/26 03:03:16;;;;;;;2.67;2.47;;;19.00;99.90;;;;;;5086630;28;20696;-81
2023/08/26 03:05:47;;;;;;;2.13;1.97;;;18.90;99.90;;;;;;5086877;28;20789;-80
2023/08/26 03:08:15;;;;;;;5.60;2.87;;;18.90;99.90;;;;;;5086007;28;20632;-81
2023/08/26 03:10:43;;;;;;;4.27;2.77;;;18.90;99.90;;;;;;5086441;28;20632;-80
2023/08/26 03:13:11;;;;;;;2.57;2.30;;;18.70;99.90;;;;;;5085774;28;20641;-81
2023/08/26 03:15:38;;;;;;;3.57;2.20;;;18.60;99.90;;;;;;5086647;28;21013;-80
2023/08/26 03:18:06;;;;;;;4.00;3.60;;;18.70;99.90;;;;;;5086895;28;20620;-79
2023/08/26 03:20:34;;;;;;;2.53;2.30;;;18.70;99.90;;;;;;5085449;28;20639;-80
2023/08/26 03:23:03;;;;;;;2.77;2.57;;;18.60;99.90;;;;;;5087064;28;21230;-80
2023/08/26 03:25:30;;;;;;;2.70;2.27;;;18.70;99.90;;;;;;5085786;28;20993;-80
2023/08/26 03:27:56;;;;;;;2.77;2.57;;;18.60;99.90;;;;;;5086712;28;20640;-80
2023/08/26 03:30:23;;;;;;;3.07;2.87;;;18.70;99.90;;;;;;5085858;28;21809;-80
2023/08/26 03:32:50;;;;;;;2.90;2.70;;;18.60;99.90;;;;;;5086640;28;21292;-80
2023/08/26 03:35:17;;;;;;;3.10;2.80;;;18.60;99.90;;;;;;5085803;28;20609;-80
2023/08/26 03:37:43;;;;;;;2.00;1.80;;;18.50;99.90;;;;;;5084933;28;20624;-81
2023/08/26 03:40:13;;;;;;;2.73;2.53;;;18.50;99.90;;;;;;5085684;28;20617;-81
2023/08/26 03:42:42;;;;;;;2.90;2.70;;;18.50;99.90;;;;;;5087240;28;20725;-81
2023/08/26 03:45:10;;;;;;;4.13;3.00;;;18.40;99.90;;;;;;5090810;28;20636;-81
2023/08/26 03:47:37;;;;;;;3.17;2.80;;;18.30;99.90;;;;;;5089727;28;20628;-80
2023/08/26 03:50:06;;;;;;;3.80;3.20;;;18.30;99.90;;;;;;5087999;28;20937;-81
2023/08/26 03:52:32;;;;;;;3.03;2.63;;;18.30;99.90;;;;;;5088897;28;20660;-81
2023/08/26 03:54:59;;;;;;;5.20;2.90;;;18.30;99.90;;;;;;5090150;28;20627;-81
2023/08/26 03:57:27;;;;;;;2.90;2.23;;;18.30;99.90;;;;;;5090003;28;20713;-80
2023/08/26 03:59:54;;;;;;;2.50;2.40;;;18.30;99.90;;;;;;5087611;28;20627;-80
2023/08/26 04:02:21;;;;;;;2.93;2.70;;;18.30;99.90;;;;;;5088574;28;20635;-80
2023/08/26 04:04:48;;;;;;;3.33;2.47;;;18.20;99.90;;;;;;5089703;28;20628;-80
2023/08/26 04:07:14;;;;;;;3.43;3.07;;;18.10;99.90;;;;;;5089473;28;21227;-80
2023/08/26 04:09:42;;;;;;;3.50;2.80;;;18.10;99.90;;;;;;5089384;28;20728;-80
2023/08/26 04:12:09;;;;;;;2.90;2.63;;;18.00;99.90;;;;;;5089142;28;20763;-80
2023/08/26 04:14:37;;;;;;;3.27;3.00;;;18.00;99.90;;;;;;5089050;28;20620;-81
2023/08/26 04:17:05;;;;;;;3.23;3.03;;;18.10;99.90;;;;;;5089149;28;21230;-81
2023/08/26 04:19:32;;;;;;;3.40;2.83;;;18.10;99.90;;;;;;5089417;28;20620;-81
2023/08/26 04:22:00;;;;;;;3.03;2.57;;;18.10;99.90;;;;;;5089298;28;21037;-80
2023/08/26 04:24:27;;;;;;;5.43;3.47;;;18.10;99.90;;;;;;5090028;28;20632;-81
2023/08/26 04:26:54;;;;;;;3.67;3.17;;;18.00;99.90;;;;;;5089527;28;20627;-81
2023/08/26 04:29:20;;;;;;;2.80;2.23;;;18.10;99.90;;;;;;5088175;28;20630;-80
2023/08/26 04:31:49;;;;;;;4.70;3.20;;;18.20;99.90;;;;;;5089488;28;20640;-80
2023/08/26 04:34:15;;;;;;;5.60;3.83;;;18.20;99.90;;;;;;5088688;28;20660;-81
2023/08/26 04:36:42;;;;;;;4.80;3.63;;;18.10;99.90;;;;;;5089717;28;20628;-80
2023/08/26 04:39:11;;;;;;;3.67;3.30;;;18.10;99.90;;;;;;5088613;28;20639;-80
2023/08/26 04:41:38;;;;;;;4.53;3.50;;;18.20;99.90;;;;;;5088194;28;21172;-81
2023/08/26 04:44:07;;;;;;;4.93;2.90;;;18.20;99.90;;;;;;5088917;28;20717;-80
2023/08/26 04:46:34;;;;;;;3.77;3.47;;;18.10;99.90;;;;;;5089250;28;20625;-81
2023/08/26 04:49:02;;;;;;;4.67;3.43;;;18.20;99.90;;;;;;5088547;28;21137;-80
2023/08/26 04:51:29;;;;;;;4.40;3.80;;;18.20;99.90;;;;;;5088808;28;20635;-80
2023/08/26 04:53:56;;;;;;;4.93;3.37;;;18.20;99.90;;;;;;5088527;28;20664;-81
2023/08/26 04:56:22;;;;;;;3.80;3.50;;;18.10;99.90;;;;;;5088060;28;20624;-80
2023/08/26 04:58:49;;;;;;;3.80;3.50;;;18.10;99.90;;;;;;5086867;28;20627;-82
2023/08/26 05:01:16;;;;;;;4.13;3.50;;;18.20;99.90;;;;;;5088349;28;21191;-80
2023/08/26 05:03:43;;;;;;;4.40;4.00;;;18.10;99.90;;;;;;5086611;28;20621;-81
2023/08/26 05:06:11;;;;;;;5.60;5.10;;;18.10;99.90;;;;;;5087807;28;21193;-81
2023/08/26 05:08:38;;;;;;;8.73;6.80;;;18.20;99.90;;;;;;5088285;28;20627;-82
2023/08/26 05:11:06;;;;;;;10.47;9.20;;;18.10;99.90;;;;;;5087347;28;20631;-81
2023/08/26 05:13:34;;;;;;;11.70;9.07;;;18.10;99.90;;;;;;5088293;28;20659;-81
2023/08/26 05:16:03;;;;;;;9.50;8.43;;;18.20;99.90;;;;;;5087691;28;20671;-82
2023/08/26 05:18:30;;;;;;;8.67;6.90;;;18.10;99.90;;;;;;5086755;28;20640;-82
2023/08/26 05:20:57;;;;;;;5.80;4.80;;;18.10;99.90;;;;;;5086042;28;20993;-81
2023/08/26 05:23:25;;;;;;;5.23;4.73;;;18.20;99.90;;;;;;5087784;28;20616;-82
2023/08/26 05:25:52;;;;;;;5.43;4.40;;;18.20;99.90;;;;;;5087543;28;20632;-81
2023/08/26 05:28:18;;;;;;;5.00;4.13;;;18.10;99.90;;;;;;5087684;28;22202;-81
2023/08/26 05:30:45;;;;;;;5.63;5.13;;;18.10;99.90;;;;;;5085715;28;20651;-82
2023/08/26 05:33:12;;;;;;;6.50;4.13;;;18.00;99.90;;;;;;5080377;28;21232;-82
2023/08/26 05:35:39;;;;;;;6.10;5.00;;;18.00;99.90;;;;;;5086942;28;21180;-82
2023/08/26 05:38:06;;;;;;;4.87;4.17;;;18.10;99.90;;;;;;5084895;28;20668;-81
2023/08/26 05:40:34;;;;;;;4.77;4.17;;;18.00;99.90;;;;;;5085629;28;20968;-82
2023/08/26 05:43:01;;;;;;;5.73;4.73;;;18.10;99.90;;;;;;5086399;28;20628;-79
2023/08/26 05:45:31;;;;;;;6.07;3.93;;;18.00;99.90;;;;;;5085846;28;20625;-78
2023/08/26 05:47:57;;;;;;;4.97;4.57;;;18.10;99.90;;;;;;5083665;28;20978;-79
2023/08/26 05:50:24;;;;;;;3.97;3.60;;;18.00;99.90;;;;;;5085614;28;20974;-77
2023/08/26 05:52:51;;;;;;;5.77;4.47;;;18.00;99.90;;;;;;5086607;28;20656;-78
2023/08/26 05:55:18;;;;;;;4.00;3.70;;;18.10;99.90;;;;;;5082853;28;20621;-78
2023/08/26 05:58:17;;;;;;;4.27;3.87;;;18.20;99.90;;;;;;5081865;28;21032;-84
2023/08/26 06:00:46;;;;;;;5.27;4.87;;;18.20;99.90;;;;;;5077284;28;21197;-77
2023/08/26 06:03:13;;;;;;;6.57;4.53;;;18.00;99.90;;;;;;5080643;28;21010;-76
2023/08/26 06:05:39;;;;;;;5.67;4.43;;;18.20;99.90;;;;;;5077926;28;20639;-77
2023/08/26 06:08:09;;;;;;;3.87;3.50;;;18.30;99.90;;;;;;5080295;28;20718;-80
2023/08/26 06:10:39;;;;;;;6.07;5.57;;;18.30;99.90;;;;;;5082576;28;20626;-73
2023/08/26 06:13:07;;;;;;;4.17;3.80;;;18.30;99.90;;;;;;5080534;28;20770;-78
2023/08/26 06:15:34;;;;;;;4.00;3.70;;;18.40;99.90;;;;;;5081863;28;20632;-78
2023/08/26 06:18:01;;;;;;;4.20;3.70;;;18.40;99.90;;;;;;5076700;28;20633;-76
2023/08/26 06:20:30;;;;;;;5.87;4.60;;;18.40;99.90;;;;;;5080113;28;21077;-79
2023/08/26 06:22:57;;;;;;;5.50;4.97;;;18.50;99.90;;;;;;5082091;28;21204;-78
2023/08/26 06:25:23;;;;;;;4.43;4.03;;;18.50;99.90;;;;;;5084663;28;20625;-74
2023/08/26 06:28:01;;;;;;;4.70;3.80;;;18.60;99.90;;;;;;5076607;28;20691;-77
2023/08/26 06:30:32;;;;;;;8.00;4.57;;;18.60;99.90;;;;;;5076736;28;20624;-74
2023/08/26 06:32:58;;;;;;;5.80;5.20;;;18.60;99.90;;;;;;5075146;28;20805;-74
2023/08/26 06:35:27;;;;;;;4.83;4.43;;;18.60;99.90;;;;;;5081692;28;20648;-74
2023/08/26 06:37:54;;;;;;;5.20;4.70;;;18.60;99.90;;;;;;5084986;28;20712;-76
2023/08/26 06:40:23;;;;;;;5.43;4.33;;;18.70;99.90;;;;;;5084058;28;20708;-75
2023/08/26 06:42:50;;;;;;;6.43;4.20;;;18.80;99.90;;;;;;5084758;28;20636;-76
2023/08/26 06:45:17;;;;;;;4.93;4.53;;;18.80;99.90;;;;;;5084840;28;20723;-76
2023/08/26 06:47:45;;;;;;;5.17;4.50;;;18.80;99.90;;;;;;5083082;28;20636;-76
2023/08/26 06:50:12;;;;;;;4.30;3.90;;;19.00;99.90;;;;;;5082965;28;20702;-76
2023/08/26 06:52:39;;;;;;;6.50;4.33;;;19.00;99.90;;;;;;5081096;28;20634;-82
2023/08/26 06:55:09;;;;;;;4.97;4.47;;;19.00;99.90;;;;;;5086111;28;20677;-74
2023/08/26 06:57:41;;;;;;;4.00;3.70;;;19.00;99.90;;;;;;5080667;28;20639;-72
2023/08/26 07:00:28;;;;;;;4.80;4.40;;;19.20;99.90;;;;;;5084988;28;20639;-72
2023/08/26 07:02:56;;;;;;;4.97;3.90;;;19.30;99.90;;;;;;5086188;28;21238;-74
2023/08/26 07:05:23;;;;;;;4.43;4.03;;;19.20;99.90;;;;;;5085640;28;20675;-76
2023/08/26 07:07:50;;;;;;;5.83;4.20;;;19.20;99.90;;;;;;5086045;28;20629;-73
2023/08/26 07:10:17;;;;;;;4.90;4.10;;;19.00;99.90;;;;;;5085581;28;20634;-73
2023/08/26 07:12:44;;;;;;;7.30;3.70;;;19.00;99.90;;;;;;5085720;28;20624;-72
2023/08/26 07:15:11;;;;;;;4.57;4.07;;;18.90;99.90;;;;;;5085284;28;20717;-73
2023/08/26 07:17:39;;;;;;;7.60;4.67;;;18.90;99.90;;;;;;5083085;28;20732;-74
2023/08/26 07:20:10;;;;;;;4.67;4.00;;;19.00;99.90;;;;;;5087373;28;21052;-77
2023/08/26 07:22:37;;;;;;;5.10;3.60;;;19.10;99.90;;;;;;5086324;28;21420;-77
2023/08/26 07:25:05;;;;;;;5.37;3.77;;;19.10;99.90;;;;;;5090001;28;20620;-77
2023/08/26 07:27:38;;;;;;;4.73;4.20;;;19.10;99.90;;;;;;5084836;28;20750;-77
2023/08/26 07:30:08;;;;;;;6.50;4.27;;;19.30;99.90;;;;;;5089772;28;20986;-77
2023/08/26 07:32:35;;;;;;;6.20;5.20;;;19.50;99.90;;;;;;5088017;28;21569;-75
2023/08/26 07:35:02;;;;;;;7.10;3.73;;;19.50;99.90;;;;;;5089137;28;20755;-75
2023/08/26 07:37:30;;;;;;;5.27;4.60;;;19.50;99.90;;;;;;5089131;28;20681;-74
2023/08/26 07:39:57;;;;;;;3.60;3.20;;;19.60;99.90;;;;;;5090724;28;20623;-74
2023/08/26 07:42:24;;;;;;;6.17;4.33;;;19.60;99.90;;;;;;5089535;28;21503;-74
2023/08/26 07:44:51;;;;;;;8.50;4.50;;;19.60;99.90;;;;;;5089488;28;20633;-75
2023/08/26 07:47:20;;;;;;;3.97;3.60;;;19.70;99.90;;;;;;5085760;28;20692;-74
2023/08/26 07:49:49;;;;;;;4.10;3.37;;;19.70;99.90;;;;;;5084316;28;20748;-76
2023/08/26 07:52:16;;;;;;;4.70;3.83;;;19.60;99.90;;;;;;5085154;28;20629;-77
2023/08/26 07:54:44;;;;;;;3.87;3.57;;;19.70;99.90;;;;;;5087476;28;21240;-76
2023/08/26 07:57:11;;;;;;;4.13;3.53;;;19.70;99.90;;;;;;5087260;28;20630;-76
2023/08/26 07:59:38;;;;;;;4.50;3.53;;;19.60;99.90;;;;;;5083450;28;20647;-76
2023/08/26 08:02:05;;;;;;;5.97;4.32;;;19.70;99.90;;;;;;5085412;28;20741;-77
2023/08/26 08:04:32;;;;;;;3.20;3.00;;;20.00;99.90;;;;;;5087629;28;20209;-76
2023/08/26 08:07:01;;;;;;;3.80;3.47;;;20.00;99.90;;;;;;5083837;28;20642;-77
2023/08/26 08:09:29;;;;;;;5.47;3.73;;;20.10;99.90;;;;;;5081476;28;20622;-75
2023/08/26 08:11:57;;;;;;;3.90;3.60;;;20.10;99.90;;;;;;5087729;28;20756;-75
2023/08/26 08:14:23;;;;;;;3.97;3.67;;;20.10;99.90;;;;;;5088560;28;20683;-75
2023/08/26 08:16:50;;;;;;;3.10;2.90;;;20.00;99.90;;;;;;5084311;28;20642;-74
2023/08/26 08:19:35;;;;;;;;;;;;;;;;;;;;;
2023/08/26 08:22:02;;;;;;;3.20;2.90;;;19.90;99.90;;;;;;5085905;28;20640;-73
2023/08/26 08:24:29;;;;;;;3.27;2.97;;;19.80;99.90;;;;;;5087047;28;20631;-71
2023/08/26 08:26:57;;;;;;;3.90;3.50;;;19.80;99.90;;;;;;5087662;28;20635;-72
2023/08/26 08:29:27;;;;;;;4.97;3.87;;;19.90;99.90;;;;;;5085691;28;20632;-72
2023/08/26 08:31:54;;;;;;;6.90;3.10;;;19.90;99.90;;;;;;5089017;28;20638;-72
2023/08/26 08:34:20;;;;;;;3.37;3.07;;;19.90;99.90;;;;;;5088713;28;21238;-72
2023/08/26 08:36:56;;;;;;;4.40;3.60;;;20.10;99.90;;;;;;5086128;28;21186;-72
2023/08/26 08:39:23;;;;;;;4.10;2.93;;;20.20;99.90;;;;;;5086239;28;20638;-72
2023/08/26 08:41:50;;;;;;;3.77;3.47;;;20.20;99.90;;;;;;5088793;28;20629;-73
2023/08/26 08:44:22;;;;;;;5.67;4.17;;;20.40;99.90;;;;;;5088618;28;20624;-73
2023/08/26 08:46:49;;;;;;;6.40;3.60;;;20.20;99.90;;;;;;5088695;28;21016;-73
2023/08/26 08:49:16;;;;;;;4.80;3.90;;;20.20;99.90;;;;;;5088018;28;21290;-73
2023/08/26 08:51:43;;;;;;;4.20;3.80;;;20.30;99.90;;;;;;5087675;28;20642;-73
2023/08/26 08:54:16;;;;;;;4.33;3.90;;;20.20;99.90;;;;;;5086989;28;21089;-78
2023/08/26 08:56:55;;;;;;;4.90;3.35;;;20.10;99.90;;;;;;5081291;28;21294;-75
2023/08/26 08:59:25;;;;;;;4.07;3.50;;;20.10;99.90;;;;;;5083224;28;20263;-76
2023/08/26 09:01:55;;;;;;;4.00;3.63;;;20.10;99.90;;;;;;5087182;28;20637;-76
2023/08/26 09:04:23;;;;;;;7.73;3.50;;;20.00;99.90;;;;;;5086777;28;20628;-76
2023/08/26 09:06:49;;;;;;;5.10;3.60;;;20.00;99.90;;;;;;5087267;28;20648;-78
2023/08/26 09:09:16;;;;;;;3.90;3.27;;;20.00;99.90;;;;;;5079906;28;21999;-76
2023/08/26 09:11:44;;;;;;;4.50;4.00;;;20.10;99.90;;;;;;5082721;28;20700;-75
2023/08/26 09:14:10;;;;;;;4.00;3.33;;;20.20;99.90;;;;;;5083668;28;20663;-75
2023/08/26 09:16:40;;;;;;;3.47;3.17;;;20.10;99.90;;;;;;5087653;28;20632;-77
2023/08/26 09:19:10;;;;;;;5.03;3.83;;;20.10;99.90;;;;;;5086349;28;21260;-77
2023/08/26 09:21:41;;;;;;;4.07;3.37;;;20.20;99.90;;;;;;5085990;28;20646;-77
2023/08/26 09:24:12;;;;;;;4.53;3.10;;;20.30;99.90;;;;;;5087528;28;21316;-82
2023/08/26 09:26:39;;;;;;;3.63;3.33;;;20.40;99.90;;;;;;5086610;28;20664;-80
2023/08/26 09:29:13;;;;;;;4.13;3.83;;;20.50;99.90;;;;;;5085532;28;20635;-82
2023/08/26 09:31:47;;;;;;;3.47;3.10;;;20.50;99.90;;;;;;5086983;28;21035;-81
2023/08/26 09:34:25;;;;;;;2.90;2.70;;;20.40;99.90;;;;;;5087570;28;20654;-83
2023/08/26 09:36:52;;;;;;;3.33;3.03;;;20.30;99.90;;;;;;5086327;28;20670;-77
2023/08/26 09:39:19;;;;;;;5.33;4.27;;;20.40;99.90;;;;;;5084272;28;21657;-79
2023/08/26 09:41:47;;;;;;;4.57;3.80;;;20.50;99.90;;;;;;5087454;28;21164;-71
2023/08/26 09:44:16;;;;;;;5.90;3.63;;;20.50;99.90;;;;;;5087058;28;20632;-74
2023/08/26 09:46:44;;;;;;;3.60;3.30;;;20.60;99.90;;;;;;5086782;28;20649;-77
2023/08/26 09:49:14;;;;;;;11.37;4.63;;;20.50;99.90;;;;;;5082145;28;20629;-72
2023/08/26 09:51:46;;;;;;;4.10;3.80;;;20.40;99.90;;;;;;5085679;28;20748;-73
2023/08/26 09:54:17;;;;;;;4.03;3.73;;;20.40;99.90;;;;;;5087751;28;20658;-73
2023/08/26 09:56:45;;;;;;;4.17;3.63;;;20.40;99.90;;;;;;5084649;28;20629;-72
2023/08/26 09:59:13;;;;;;;4.30;3.93;;;20.30;99.90;;;;;;5085662;28;20627;-73
2023/08/26 10:01:41;;;;;;;4.47;4.10;;;20.20;99.90;;;;;;5086764;28;20633;-73
2023/08/26 10:04:09;;;;;;;4.27;3.97;;;20.30;99.90;;;;;;5087830;28;20687;-74
2023/08/26 10:06:42;;;;;;;5.60;3.43;;;20.50;99.90;;;;;;5085459;28;20635;-74
2023/08/26 10:09:16;;;;;;;4.90;4.33;;;20.60;99.90;;;;;;5085295;28;20635;-76
2023/08/26 10:11:48;;;;;;;4.53;3.87;;;20.60;99.90;;;;;;5087639;28;20619;-81
2023/08/26 10:14:15;;;;;;;5.40;4.27;;;20.60;99.90;;;;;;5086177;28;20658;-83
2023/08/26 10:16:44;;;;;;;4.33;3.93;;;20.50;99.90;;;;;;5084058;28;21260;-80
2023/08/26 10:19:11;;;;;;;5.90;3.60;;;20.40;99.90;;;;;;5084161;28;21031;-81
2023/08/26 10:21:40;;;;;;;4.53;4.10;;;20.40;99.90;;;;;;5079967;28;20640;-80
2023/08/26 10:24:08;;;;;;;5.23;4.33;;;20.10;99.90;;;;;;5084296;28;21046;-81
2023/08/26 10:26:35;;;;;;;4.77;4.30;;;19.90;99.90;;;;;;5085742;28;20705;-78
2023/08/26 10:29:02;;;;;;;4.40;4.07;;;19.90;99.90;;;;;;5084912;28;20637;-80
2023/08/26 10:31:38;;;;;;;3.67;3.37;;;20.00;99.90;;;;;;5086992;28;20633;-80
2023/08/26 10:34:14;;;;;;;5.40;4.30;;;20.00;99.90;;;;;;5085438;28;21581;-80
2023/08/26 10:36:48;;;;;;;6.07;5.50;;;19.90;99.90;;;;;;5084984;28;20624;-80
2023/08/26 10:39:16;;;;;;;5.20;4.20;;;19.70;99.90;;;;;;5082599;28;20727;-80
2023/08/26 10:42:14;;;;;;;4.60;4.20;;;19.70;99.90;;;;;;5082069;28;20638;-81
2023/08/26 10:44:43;;;;;;;4.90;4.40;;;19.60;99.90;;;;;;5081598;28;20630;-80
2023/08/26 10:47:11;;;;;;;4.87;4.30;;;19.50;99.90;;;;;;5084990;28;20634;-81
2023/08/26 10:49:38;;;;;;;6.93;4.33;;;19.50;99.90;;;;;;5083473;28;20633;-81
2023/08/26 10:52:15;;;;;;;5.13;4.30;;;19.50;99.90;;;;;;5084911;28;20645;-81
2023/08/26 10:54:43;;;;;;;5.93;4.03;;;19.40;99.90;;;;;;5083449;28;20647;-80
2023/08/26 10:57:10;;;;;;;4.00;3.43;;;19.30;99.90;;;;;;5086065;28;20634;-81
2023/08/26 10:59:38;;;;;;;4.73;4.30;;;19.30;99.90;;;;;;5085126;28;20622;-81
2023/08/26 11:02:07;;;;;;;5.43;4.93;;;19.30;99.90;;;;;;5085816;28;20619;-81
2023/08/26 11:04:35;;;;;;;6.10;3.80;;;19.50;99.90;;;;;;5085842;28;20630;-80
2023/08/26 11:07:02;;;;;;;4.80;4.40;;;19.60;99.90;;;;;;5085913;28;20654;-81
2023/08/26 11:09:30;;;;;;;5.30;4.27;;;19.60;99.90;;;;;;5085686;28;21115;-80
2023/08/26 11:11:57;;;;;;;5.20;4.47;;;19.70;99.90;;;;;;5086301;28;20626;-81
2023/08/26 11:14:33;;;;;;;5.03;4.53;;;19.80;99.90;;;;;;5085537;28;20662;-81
2023/08/26 11:17:02;;;;;;;4.73;4.37;;;19.80;99.90;;;;;;5086408;28;20631;-81
2023/08/26 11:19:30;;;;;;;3.80;3.13;;;20.00;99.90;;;;;;5084301;28;20992;-80
2023/08/26 11:21:57;;;;;;;6.17;4.67;;;20.20;99.90;;;;;;5085447;28;20734;-80
2023/08/26 11:24:31;;;;;;;3.87;3.57;;;20.50;99.90;;;;;;5085878;28;20619;-80
2023/08/26 11:26:59;;;;;;;7.60;4.73;;;20.50;99.90;;;;;;5082603;28;20619;-80
2023/08/26 11:29:25;;;;;;;4.63;4.13;;;20.40;99.90;;;;;;5083495;28;21192;-81
2023/08/26 11:31:52;;;;;;;9.13;4.33;;;20.20;99.90;;;;;;5085814;28;21934;-80
2023/08/26 11:34:23;;;;;;;5.63;4.73;;;20.10;99.90;;;;;;5085388;28;20628;-80
2023/08/26 11:36:53;;;;;;;3.93;3.60;;;20.00;99.90;;;;;;5084707;28;21182;-79
2023/08/26 11:39:20;;;;;;;3.87;3.57;;;20.00;99.90;;;;;;5082640;28;21110;-78
2023/08/26 11:41:49;;;;;;;5.23;3.90;;;19.90;99.90;;;;;;5080664;28;20764;-81
2023/08/26 11:44:16;;;;;;;5.03;4.53;;;20.00;99.90;;;;;;5083314;28;21247;-81
2023/08/26 11:46:44;;;;;;;5.07;4.60;;;19.90;99.90;;;;;;5080902;28;20638;-88
2023/08/26 11:49:11;;;;;;;4.73;3.83;;;19.80;99.90;;;;;;5081204;28;20635;-75
2023/08/26 11:51:41;;;;;;;7.57;5.10;;;19.80;99.90;;;;;;5084715;28;20636;-80
2023/08/26 11:54:09;;;;;;;6.83;4.87;;;19.90;99.90;;;;;;5084074;28;20636;-75
2023/08/26 11:56:36;;;;;;;4.93;4.37;;;19.80;99.90;;;;;;5084713;28;21086;-76
2023/08/26 11:59:19;;;;;;;5.23;4.50;;;19.70;99.90;;;;;;5081975;28;20639;-73
2023/08/26 12:01:46;;;;;;;4.77;4.30;;;19.90;99.90;;;;;;5083933;28;21200;-73
2023/08/26 12:04:13;;;;;;;6.60;4.57;;;19.60;99.90;;;;;;5086525;28;20656;-72
2023/08/26 12:06:42;;;;;;;5.47;4.50;;;19.40;99.90;;;;;;5083614;28;21182;-76
2023/08/26 12:09:11;;;;;;;5.10;4.10;;;19.30;99.90;;;;;;5086986;28;21125;-74
2023/08/26 12:11:39;;;;;;;5.37;4.87;;;19.50;99.90;;;;;;5088931;28;20684;-76
2023/08/26 12:14:18;;;;;;;7.03;4.00;;;19.60;99.90;;;;;;5089358;28;20627;-74
2023/08/26 12:16:45;;;;;;;4.37;4.07;;;19.40;99.90;;;;;;5088691;28;20661;-74
2023/08/26 12:19:18;;;;;;;5.47;4.97;;;19.30;99.90;;;;;;5086597;28;20732;-73
2023/08/26 12:21:50;;;;;;;4.60;4.20;;;19.30;99.90;;;;;;5088659;28;20737;-73
2023/08/26 12:24:21;;;;;;;6.80;4.67;;;19.20;99.90;;;;;;5089027;28;20742;-78
2023/08/26 12:26:48;;;;;;;5.40;4.87;;;19.20;99.90;;;;;;5087438;28;20630;-74
2023/08/26 12:29:28;;;;;;;5.57;4.67;;;19.10;99.90;;;;;;5086571;28;21185;-75
2023/08/26 12:31:55;;;;;;;5.20;4.70;;;19.00;99.90;;;;;;5086958;28;20740;-74
2023/08/26 12:34:22;;;;;;;7.50;5.20;;;19.10;99.90;;;;;;5087469;28;20626;-79
2023/08/26 12:39:59;;;;;;;4.83;4.33;;;19.00;99.90;;;;;;5075265;28;20621;-77
2023/08/26 12:42:26;;;;;;;11.00;5.60;;;19.00;99.90;;;;;;5087541;28;20628;-84
2023/08/26 12:44:57;;;;;;;5.90;5.30;;;19.00;99.90;;;;;;5086854;28;20630;-83
2023/08/26 12:47:24;;;;;;;7.37;5.00;;;19.00;99.90;;;;;;5084969;28;20628;-78
2023/08/26 12:49:51;;;;;;;5.63;5.07;;;19.10;99.90;;;;;;5087405;28;20644;-78
2023/08/26 12:52:21;;;;;;;4.87;4.37;;;19.00;99.90;;;;;;5087701;28;20971;-76
2023/08/26 12:54:48;;;;;;;4.80;4.40;;;18.80;99.90;;;;;;5088101;28;20625;-76
2023/08/26 12:57:15;;;;;;;4.53;4.13;;;18.80;99.90;;;;;;5086841;28;20630;-80